createdAt,value
2019-03-04T00:01:25.346Z,71.81
2019-03-04T00:03:52.957Z,72.05
2019-03-04T00:06:20.524Z,72.33
2019-03-04T00:08:48.164Z,72.62
2019-03-04T00:11:15.781Z,72.88
2019-03-04T00:13:43.377Z,73.34
2019-03-04T00:16:10.922Z,73.50
2019-03-04T00:18:38.557Z,73.74
2019-03-04T00:21:06.173Z,73.77
2019-03-04T00:23:33.852Z,73.81
2019-03-04T00:26:01.547Z,74.18
2019-03-04T00:28:29.255Z,73.96
2019-03-04T00:30:56.917Z,73.96
2019-03-04T00:33:24.595Z,73.96
2019-03-04T00:35:52.401Z,73.96
2019-03-04T00:38:19.998Z,73.82
2019-03-04T00:40:47.642Z,73.99
2019-03-04T00:43:15.369Z,74.27
2019-03-04T00:45:44.731Z,74.51
2019-03-04T00:48:12.339Z,74.69
2019-03-04T00:50:40.606Z,74.84
2019-03-04T00:53:08.257Z,75.12
2019-03-04T00:55:35.846Z,74.96
2019-03-04T00:58:03.563Z,75.24
2019-03-04T01:00:31.173Z,75.07
2019-03-04T01:02:58.850Z,75.17
2019-03-04T01:05:26.364Z,75.35
2019-03-04T01:07:54.002Z,75.58
2019-03-04T01:10:21.637Z,76.11
2019-03-04T01:12:49.294Z,75.91
2019-03-04T01:15:17.969Z,76.07
2019-03-04T01:17:45.663Z,75.61
2019-03-04T01:20:14.472Z,75.51
2019-03-04T01:22:42.108Z,75.61
2019-03-04T01:25:14.196Z,75.96
2019-03-04T01:27:41.751Z,75.89
2019-03-04T01:30:12.392Z,75.95
2019-03-04T01:32:40.002Z,76.03
2019-03-04T01:35:07.561Z,76.19
2019-03-04T01:37:35.266Z,76.12
2019-03-04T01:40:02.859Z,75.81
2019-03-04T01:42:30.455Z,76.15
2019-03-04T01:44:58.067Z,76.14
2019-03-04T01:47:25.667Z,76.28
2019-03-04T01:49:54.295Z,76.27
2019-03-04T01:52:21.911Z,76.39
2019-03-04T01:54:49.440Z,76.47
2019-03-04T01:57:17.025Z,76.40
2019-03-04T01:59:44.583Z,76.42
2019-03-04T02:02:12.184Z,76.67
2019-03-04T02:04:39.874Z,76.60
2019-03-04T02:07:07.495Z,77.02
2019-03-04T02:09:36.074Z,76.82
2019-03-04T02:12:04.113Z,76.76
2019-03-04T02:14:31.728Z,76.92
2019-03-04T02:16:59.870Z,77.07
2019-03-04T02:19:27.424Z,77.23
2019-03-04T02:21:56.624Z,77.11
2019-03-04T02:24:25.396Z,77.04
2019-03-04T02:26:54.670Z,77.38
2019-03-04T02:29:23.361Z,77.50
2019-03-04T02:31:50.967Z,77.99
2019-03-04T02:34:19.620Z,78.00
2019-03-04T02:36:47.215Z,77.83
2019-03-04T02:39:14.752Z,77.66
2019-03-04T02:41:42.398Z,77.67
2019-03-04T02:44:09.980Z,77.77
2019-03-04T02:46:37.585Z,77.95
2019-03-04T02:49:05.200Z,78.10
2019-03-04T02:51:32.781Z,77.91
2019-03-04T02:54:00.344Z,78.02
2019-03-04T02:56:29.021Z,77.92
2019-03-04T02:58:56.618Z,78.14
2019-03-04T03:01:24.351Z,78.03
2019-03-04T03:03:51.893Z,78.35
2019-03-04T03:06:19.551Z,78.31
2019-03-04T03:08:47.158Z,78.58
2019-03-04T03:11:14.754Z,78.44
2019-03-04T03:13:43.316Z,78.23
2019-03-04T03:16:10.919Z,78.18
2019-03-04T03:18:39.727Z,78.36
2019-03-04T03:21:07.351Z,78.67
2019-03-04T03:23:34.932Z,78.41
2019-03-04T03:26:02.544Z,78.61
2019-03-04T03:28:30.151Z,78.81
2019-03-04T03:30:57.752Z,78.84
2019-03-04T03:33:25.398Z,78.99
2019-03-04T03:35:52.937Z,78.87
2019-03-04T03:38:20.581Z,78.90
2019-03-04T03:40:48.131Z,78.97
2019-03-04T03:43:15.863Z,79.34
2019-03-04T03:45:43.457Z,79.59
2019-03-04T03:48:11.062Z,80.05
2019-03-04T03:50:38.617Z,80.06
2019-03-04T03:53:06.234Z,79.52
2019-03-04T03:55:33.813Z,79.78
2019-03-04T03:58:01.431Z,79.71
2019-03-04T04:00:28.989Z,79.53
2019-03-04T04:02:56.778Z,79.26
2019-03-04T04:05:24.353Z,79.21
2019-03-04T04:07:51.902Z,78.76
2019-03-04T04:10:19.703Z,78.62
2019-03-04T04:12:47.228Z,78.43
2019-03-04T04:15:15.016Z,78.50
2019-03-04T04:17:42.557Z,78.90
2019-03-04T04:20:10.469Z,78.96
2019-03-04T04:22:38.619Z,78.96
2019-03-04T04:25:06.711Z,78.62
2019-03-04T04:27:34.257Z,77.93
2019-03-04T04:30:02.102Z,78.04
2019-03-04T04:32:29.664Z,78.11
2019-03-04T04:34:57.204Z,78.15
2019-03-04T04:37:24.752Z,78.25
2019-03-04T04:39:52.328Z,77.98
2019-03-04T04:42:19.866Z,77.62
2019-03-04T04:44:47.427Z,77.39
2019-03-04T04:47:14.993Z,77.79
2019-03-04T04:49:42.606Z,78.12
2019-03-04T04:52:10.163Z,78.78
2019-03-04T04:54:37.757Z,78.96
2019-03-04T04:57:05.354Z,78.79
2019-03-04T04:59:32.946Z,78.71
2019-03-04T05:02:00.514Z,78.52
2019-03-04T05:04:28.113Z,79.11
2019-03-04T05:06:55.707Z,78.84
2019-03-04T05:09:23.302Z,78.54
2019-03-04T05:11:51.317Z,78.42
2019-03-04T05:14:18.888Z,78.58
2019-03-04T05:16:46.479Z,78.66
2019-03-04T05:19:14.057Z,78.77
2019-03-04T05:21:41.640Z,78.52
2019-03-04T05:24:10.355Z,78.53
2019-03-04T05:26:38.044Z,78.32
2019-03-04T05:29:05.739Z,78.54
2019-03-04T05:31:33.395Z,79.05
2019-03-04T05:34:01.043Z,78.94
2019-03-04T05:36:29.753Z,78.81
2019-03-04T05:38:57.544Z,78.92
2019-03-04T05:41:25.317Z,79.52
2019-03-04T05:43:54.195Z,79.61
2019-03-04T05:46:21.821Z,79.63
2019-03-04T05:48:49.502Z,79.51
2019-03-04T05:51:17.217Z,79.98
2019-03-04T05:53:44.911Z,79.91
2019-03-04T05:56:12.582Z,79.92
2019-03-04T05:58:40.191Z,80.05
2019-03-04T06:01:22.223Z,79.99
2019-03-04T06:03:50.814Z,80.15
2019-03-04T06:06:38.192Z,80.11
2019-03-04T06:09:08.240Z,79.96
2019-03-04T06:11:35.908Z,80.12
2019-03-04T06:14:05.553Z,80.26
2019-03-04T06:16:33.214Z,80.30
2019-03-04T06:19:01.028Z,80.38
2019-03-04T06:21:28.688Z,79.56
2019-03-04T06:23:56.351Z,78.95
2019-03-04T06:26:24.018Z,78.43
2019-03-04T06:28:51.653Z,77.68
2019-03-04T06:31:19.244Z,77.55
2019-03-04T06:33:46.775Z,77.40
2019-03-04T06:36:14.451Z,76.65
2019-03-04T06:38:42.009Z,75.75
2019-03-04T06:41:09.621Z,75.61
2019-03-04T06:43:37.245Z,75.14
2019-03-04T06:46:04.791Z,74.69
2019-03-04T06:48:32.438Z,74.90
2019-03-04T06:51:00.408Z,74.70
2019-03-04T06:54:01.735Z,74.76
2019-03-04T06:56:39.067Z,74.20
2019-03-04T06:59:18.734Z,72.81
2019-03-04T07:01:49.979Z,71.61
2019-03-04T07:04:55.046Z,70.09
2019-03-04T07:07:22.597Z,69.90
2019-03-04T07:09:50.206Z,68.62
2019-03-04T07:12:17.765Z,67.61
2019-03-04T07:14:45.444Z,67.06
2019-03-04T07:17:13.012Z,65.82
2019-03-04T07:19:40.671Z,64.42
2019-03-04T07:22:08.317Z,64.49
2019-03-04T07:24:35.998Z,63.49
2019-03-04T07:27:03.701Z,61.92
2019-03-04T07:29:31.430Z,61.96
2019-03-04T07:31:59.064Z,61.64
2019-03-04T07:34:26.843Z,60.91
2019-03-04T07:36:57.451Z,60.73
2019-03-04T07:39:25.137Z,60.54
2019-03-04T07:41:56.988Z,59.98
2019-03-04T07:44:24.640Z,59.22
2019-03-04T07:46:53.820Z,58.79
2019-03-04T07:49:21.515Z,58.38
2019-03-04T07:51:49.503Z,58.33
2019-03-04T07:54:17.278Z,58.21
2019-03-04T07:56:44.922Z,57.60
2019-03-04T07:59:12.604Z,58.00
2019-03-04T08:01:40.236Z,58.12
2019-03-04T08:04:07.899Z,57.15
2019-03-04T08:06:35.802Z,57.07
2019-03-04T08:09:54.480Z,55.82
2019-03-04T08:12:50.357Z,55.75
2019-03-04T08:15:17.877Z,54.92
2019-03-04T08:17:45.662Z,54.11
2019-03-04T08:20:13.655Z,53.52
2019-03-04T08:22:41.356Z,54.48
2019-03-04T08:25:16.144Z,54.01
2019-03-04T08:27:43.837Z,53.61
2019-03-04T08:30:19.375Z,53.29
2019-03-04T08:32:47.022Z,53.63
2019-03-04T08:35:14.769Z,53.71
2019-03-04T08:37:42.465Z,54.41
2019-03-04T08:40:11.124Z,54.22
2019-03-04T08:42:39.852Z,53.96
2019-03-04T08:45:08.293Z,53.87
2019-03-04T08:47:35.966Z,54.14
2019-03-04T08:50:04.777Z,54.66
2019-03-04T08:52:32.475Z,54.83
2019-03-04T08:55:00.101Z,54.53
2019-03-04T08:57:27.928Z,53.39
2019-03-04T08:59:55.585Z,53.35
2019-03-04T09:02:24.559Z,52.70
2019-03-04T09:04:52.109Z,51.68
2019-03-04T09:07:19.778Z,51.34
2019-03-04T09:09:47.484Z,51.01
2019-03-04T09:12:15.138Z,49.89
2019-03-04T09:14:44.448Z,49.37
2019-03-04T09:17:12.152Z,49.35
2019-03-04T09:19:42.608Z,49.69
2019-03-04T09:22:10.314Z,49.77
2019-03-04T09:24:37.930Z,49.20
2019-03-04T09:27:06.200Z,48.85
2019-03-04T09:29:33.857Z,47.70
2019-03-04T09:32:01.461Z,47.78
2019-03-04T09:34:29.181Z,47.53
2019-03-04T09:36:56.883Z,47.37
2019-03-04T09:39:24.623Z,45.73
2019-03-04T09:41:56.416Z,45.71
2019-03-04T09:44:24.101Z,42.38
2019-03-04T09:46:51.764Z,41.77
2019-03-04T09:49:19.289Z,42.28
2019-03-04T09:51:46.878Z,42.88
2019-03-04T09:54:14.474Z,43.35
2019-03-04T09:56:42.111Z,43.32
2019-03-04T09:59:09.642Z,42.92
2019-03-04T10:01:49.941Z,43.46
2019-03-04T10:04:57.833Z,43.14
2019-03-04T10:07:56.052Z,42.24
2019-03-04T10:10:38.347Z,43.08
2019-03-04T10:14:02.855Z,42.22
2019-03-04T10:16:52.779Z,42.75
2019-03-04T10:20:00.808Z,42.88
2019-03-04T10:22:40.711Z,42.94
2019-03-04T10:25:55.295Z,42.76
2019-03-04T10:29:04.022Z,43.55
2019-03-04T10:31:40.786Z,44.80
2019-03-04T10:34:52.183Z,44.98
2019-03-04T10:37:43.043Z,44.70
2019-03-04T10:40:46.389Z,45.52
2019-03-04T10:43:42.828Z,45.17
2019-03-04T10:46:49.900Z,45.16
2019-03-04T10:49:17.516Z,44.52
2019-03-04T10:51:45.047Z,44.05
2019-03-04T10:54:12.609Z,44.26
2019-03-04T10:56:42.371Z,44.24
2019-03-04T10:59:09.836Z,44.34
2019-03-04T11:01:37.451Z,44.62
2019-03-04T11:04:05.152Z,44.75
2019-03-04T11:06:32.742Z,45.37
2019-03-04T11:09:00.378Z,45.58
2019-03-04T11:11:30.037Z,45.39
2019-03-04T11:13:57.480Z,45.36
2019-03-04T11:16:25.052Z,46.40
2019-03-04T11:18:52.621Z,46.61
2019-03-04T11:21:23.132Z,46.80
2019-03-04T11:23:50.743Z,46.08
2019-03-04T11:26:18.313Z,46.10
2019-03-04T11:28:45.954Z,47.09
2019-03-04T11:31:13.544Z,47.15
2019-03-04T11:33:41.335Z,46.87
2019-03-04T11:36:09.034Z,47.05
2019-03-04T11:38:41.973Z,47.35
2019-03-04T11:41:12.047Z,47.22
2019-03-04T11:43:39.633Z,47.48
2019-03-04T11:46:07.314Z,47.12
2019-03-04T11:48:34.870Z,47.38
2019-03-04T11:51:02.532Z,46.86
2019-03-04T11:53:30.102Z,46.61
2019-03-04T11:55:57.725Z,47.40
2019-03-04T11:58:25.339Z,46.09
2019-03-04T12:01:12.565Z,46.19
2019-03-04T12:03:40.157Z,45.97
2019-03-04T12:06:08.071Z,46.54
2019-03-04T12:08:35.659Z,45.99
2019-03-04T12:11:03.254Z,45.92
2019-03-04T12:13:30.936Z,45.73
2019-03-04T12:15:58.598Z,46.29
2019-03-04T12:18:26.174Z,45.85
2019-03-04T12:20:54.329Z,45.92
2019-03-04T12:23:23.100Z,46.02
2019-03-04T12:25:50.795Z,45.91
2019-03-04T12:28:19.656Z,46.53
2019-03-04T12:30:47.352Z,46.40
2019-03-04T12:33:14.951Z,46.80
2019-03-04T12:35:42.760Z,46.70
2019-03-04T12:38:10.332Z,47.00
2019-03-04T12:40:37.965Z,47.04
2019-03-04T12:43:05.479Z,46.90
2019-03-04T12:45:34.682Z,46.16
2019-03-04T12:48:02.464Z,45.79
2019-03-04T12:50:30.368Z,45.82
2019-03-04T12:52:57.920Z,45.97
2019-03-04T12:55:25.600Z,45.42
2019-03-04T12:57:53.222Z,45.48
2019-03-04T13:00:21.307Z,45.94
2019-03-04T13:02:57.185Z,45.33
2019-03-04T13:05:18.581Z,45.21
2019-03-04T13:07:47.172Z,45.19
2019-03-04T13:10:15.004Z,44.52
2019-03-04T13:12:42.966Z,45.33
2019-03-04T13:15:15.729Z,44.73
2019-03-04T13:17:47.575Z,45.06
2019-03-04T13:20:15.378Z,44.07
2019-03-04T13:22:43.019Z,44.32
2019-03-04T13:25:10.644Z,44.18
2019-03-04T13:27:38.298Z,43.28
2019-03-04T13:30:08.080Z,42.98
2019-03-04T13:32:35.628Z,42.74
2019-03-04T13:35:03.822Z,42.28
2019-03-04T13:37:31.528Z,42.53
2019-03-04T13:39:59.203Z,41.75
2019-03-04T13:42:26.832Z,42.49
2019-03-04T13:44:54.451Z,42.83
2019-03-04T13:47:22.053Z,42.29
2019-03-04T13:49:49.640Z,41.94
2019-03-04T13:52:17.265Z,41.74
2019-03-04T13:54:44.822Z,41.24
2019-03-04T13:57:13.447Z,41.20
2019-03-04T13:59:41.052Z,41.10
2019-03-04T14:02:10.220Z,41.55
2019-03-04T14:04:37.843Z,40.67
2019-03-04T14:07:05.573Z,40.12
2019-03-04T14:09:33.154Z,39.59
2019-03-04T14:12:02.383Z,39.24
2019-03-04T14:14:30.003Z,39.08
2019-03-04T14:16:57.760Z,38.11
2019-03-04T14:19:26.571Z,37.97
2019-03-04T14:21:54.337Z,37.54
2019-03-04T14:24:21.860Z,37.35
2019-03-04T14:26:49.510Z,37.49
2019-03-04T14:29:17.066Z,37.25
2019-03-04T14:31:44.660Z,36.79
2019-03-04T14:34:12.228Z,37.88
2019-03-04T14:36:39.843Z,37.83
2019-03-04T14:39:12.877Z,37.99
2019-03-04T14:41:40.499Z,38.90
2019-03-04T14:44:08.119Z,38.51
2019-03-04T14:46:35.808Z,39.44
2019-03-04T14:49:03.491Z,39.26
2019-03-04T14:51:31.749Z,39.81
2019-03-04T14:53:59.315Z,39.70
2019-03-04T14:56:29.819Z,39.74
2019-03-04T14:59:10.516Z,40.05
2019-03-04T15:01:27.104Z,40.59
2019-03-04T15:03:54.663Z,41.00
2019-03-04T15:06:22.343Z,41.23
2019-03-04T15:08:49.891Z,41.52
2019-03-04T15:11:17.570Z,41.65
2019-03-04T15:13:45.117Z,41.97
2019-03-04T15:16:12.899Z,42.46
2019-03-04T15:18:40.514Z,43.08
2019-03-04T15:21:08.196Z,43.25
2019-03-04T15:23:35.796Z,43.23
2019-03-04T15:26:06.329Z,43.58
2019-03-04T15:28:33.899Z,44.41
2019-03-04T15:31:02.257Z,44.12
2019-03-04T15:33:32.022Z,45.43
2019-03-04T15:36:00.079Z,46.11
2019-03-04T15:38:27.731Z,45.52
2019-03-04T15:40:55.381Z,45.72
2019-03-04T15:43:23.222Z,45.75
2019-03-04T15:45:51.950Z,45.69
2019-03-04T15:48:22.568Z,47.20
2019-03-04T15:50:52.087Z,45.64
2019-03-04T15:53:20.028Z,47.73
2019-03-04T15:55:47.685Z,45.68
2019-03-04T15:58:15.347Z,45.26
2019-03-04T16:00:42.897Z,46.10
2019-03-04T16:03:10.543Z,45.54
2019-03-04T16:05:38.202Z,46.98
2019-03-04T16:08:07.792Z,46.48
2019-03-04T16:10:36.542Z,45.91
2019-03-04T16:13:04.850Z,45.50
2019-03-04T16:15:33.333Z,43.64
2019-03-04T16:18:02.377Z,44.13
2019-03-04T16:20:30.034Z,44.18
2019-03-04T16:22:57.922Z,44.74
2019-03-04T16:25:27.553Z,44.32
2019-03-04T16:28:01.258Z,44.86
2019-03-04T16:30:28.934Z,45.14
2019-03-04T16:32:57.063Z,45.30
2019-03-04T16:35:24.714Z,44.85
2019-03-04T16:37:52.341Z,45.15
2019-03-04T16:40:21.911Z,45.53
2019-03-04T16:42:49.583Z,46.02
2019-03-04T16:45:18.189Z,45.95
2019-03-04T16:47:46.035Z,46.04
2019-03-04T16:50:14.090Z,46.31
2019-03-04T16:52:42.103Z,46.51
2019-03-04T16:55:11.567Z,46.53
2019-03-04T16:57:39.154Z,46.29
2019-03-04T17:00:08.688Z,46.62
2019-03-04T17:02:37.042Z,47.34
2019-03-04T17:05:05.566Z,47.27
2019-03-04T17:07:33.617Z,47.31
2019-03-04T17:10:01.255Z,47.92
2019-03-04T17:12:29.042Z,47.51
2019-03-04T17:14:56.766Z,47.57
2019-03-04T17:17:24.767Z,47.42
2019-03-04T17:19:52.558Z,47.66
2019-03-04T17:22:20.289Z,47.32
2019-03-04T17:24:48.059Z,47.57
2019-03-04T17:27:15.767Z,47.01
2019-03-04T17:29:43.442Z,47.07
2019-03-04T17:32:11.357Z,47.32
2019-03-04T17:34:39.147Z,47.15
2019-03-04T17:37:07.017Z,47.14
2019-03-04T17:39:34.832Z,47.43
2019-03-04T17:42:02.709Z,47.40
2019-03-04T17:44:30.482Z,47.64
2019-03-04T17:46:58.388Z,47.77
2019-03-04T17:49:27.097Z,47.81
2019-03-04T17:51:54.744Z,48.19
2019-03-04T17:54:22.443Z,48.17
2019-03-04T17:56:53.109Z,48.53
2019-03-04T17:59:20.788Z,48.49
2019-03-04T18:01:48.446Z,48.61
2019-03-04T18:04:16.095Z,48.86
2019-03-04T18:06:43.771Z,48.82
2019-03-04T18:09:11.443Z,48.63
2019-03-04T18:11:39.257Z,48.72
2019-03-04T18:14:07.500Z,48.87
2019-03-04T18:16:35.143Z,49.00
2019-03-04T18:19:02.989Z,49.07
2019-03-04T18:21:30.592Z,49.45
2019-03-04T18:23:58.677Z,49.65
2019-03-04T18:26:57.322Z,49.79
2019-03-04T18:29:58.499Z,50.05
2019-03-04T18:33:07.054Z,50.45
2019-03-04T18:36:18.225Z,51.00
2019-03-04T18:39:34.093Z,50.25
2019-03-04T18:42:44.945Z,50.50
2019-03-04T18:45:52.939Z,51.21
2019-03-04T18:48:55.840Z,51.67
2019-03-04T18:51:23.624Z,53.30
2019-03-04T18:53:53.066Z,54.58
2019-03-04T18:56:22.189Z,55.32
2019-03-04T18:58:50.303Z,57.85
2019-03-04T19:01:18.351Z,61.44
2019-03-04T19:03:46.110Z,64.56
2019-03-04T19:06:14.281Z,66.07
2019-03-04T19:08:42.219Z,71.55
2019-03-04T19:11:09.942Z,72.67
2019-03-04T19:13:37.823Z,73.37
2019-03-04T19:16:05.738Z,72.26
2019-03-04T19:18:33.361Z,72.29
2019-03-04T19:21:01.235Z,72.35
2019-03-04T19:23:28.848Z,73.02
2019-03-04T19:25:56.610Z,73.17
2019-03-04T19:28:24.215Z,74.42
2019-03-04T19:30:51.975Z,73.12
2019-03-04T19:33:19.819Z,73.07
2019-03-04T19:35:47.594Z,72.55
2019-03-04T19:38:15.247Z,72.96
2019-03-04T19:40:42.962Z,72.31
2019-03-04T19:43:10.582Z,73.89
2019-03-04T19:45:38.296Z,74.07
2019-03-04T19:48:06.018Z,73.13
2019-03-04T19:50:37.231Z,72.41
2019-03-04T19:53:05.145Z,74.36
2019-03-04T19:55:32.825Z,74.45
2019-03-04T19:58:00.484Z,74.26
2019-03-04T20:00:29.585Z,73.63
2019-03-04T20:02:57.470Z,74.92
2019-03-04T20:05:25.298Z,75.44
2019-03-04T20:07:53.179Z,75.59
2019-03-04T20:10:24.502Z,75.41
2019-03-04T20:12:52.831Z,76.41
2019-03-04T20:15:21.461Z,76.13
2019-03-04T20:17:49.277Z,77.40
2019-03-04T20:20:17.097Z,76.43
2019-03-04T20:22:45.136Z,76.68
2019-03-04T20:25:12.878Z,77.28
2019-03-04T20:27:40.491Z,76.96
2019-03-04T20:30:09.074Z,77.79
2019-03-04T20:32:36.676Z,79.20
2019-03-04T20:35:05.801Z,78.88
2019-03-04T20:37:35.046Z,79.33
2019-03-04T20:40:03.439Z,78.92
2019-03-04T20:42:31.340Z,80.17
2019-03-04T20:44:58.992Z,78.26
2019-03-04T20:47:26.657Z,78.50
2019-03-04T20:49:54.235Z,79.77
2019-03-04T20:52:21.865Z,79.07
2019-03-04T20:54:49.576Z,79.92
2019-03-04T20:57:17.343Z,79.85
2019-03-04T20:59:45.049Z,80.44
2019-03-04T21:02:12.826Z,80.78
2019-03-04T21:04:40.491Z,81.37
2019-03-04T21:07:08.268Z,82.51
2019-03-04T21:09:35.925Z,83.10
2019-03-04T21:12:03.999Z,82.46
2019-03-04T21:14:31.632Z,82.83
2019-03-04T21:16:59.354Z,82.72
2019-03-04T21:19:27.045Z,83.15
2019-03-04T21:21:55.627Z,83.19
2019-03-04T21:24:23.325Z,83.53
2019-03-04T21:26:50.991Z,82.81
2019-03-04T21:29:53.194Z,82.70
2019-03-04T21:33:00.839Z,83.63
2019-03-04T21:36:22.372Z,82.51
2019-03-04T21:38:50.600Z,81.86
2019-03-04T21:41:46.661Z,83.02
2019-03-04T21:45:00.286Z,83.29
2019-03-04T21:47:44.500Z,83.25
2019-03-04T21:50:14.807Z,83.06
2019-03-04T21:53:10.377Z,83.07
2019-03-04T21:55:43.390Z,83.90
2019-03-04T21:58:13.681Z,83.94
2019-03-04T22:00:42.918Z,84.04
2019-03-04T22:03:16.676Z,83.47
2019-03-04T22:05:50.173Z,84.15
2019-03-04T22:08:13.989Z,84.80
2019-03-04T22:10:41.591Z,85.93
2019-03-04T22:13:09.541Z,86.50
2019-03-04T22:15:37.156Z,87.00
2019-03-04T22:18:06.017Z,86.51
2019-03-04T22:20:33.778Z,86.61
2019-03-04T22:23:01.538Z,86.48
2019-03-04T22:25:29.140Z,86.51
2019-03-04T22:27:56.890Z,86.37
2019-03-04T22:30:24.673Z,86.51
2019-03-04T22:32:52.486Z,86.22
2019-03-04T22:35:20.879Z,86.04
2019-03-04T22:37:48.584Z,86.31
2019-03-04T22:40:18.461Z,86.11
2019-03-04T22:42:47.695Z,86.36
2019-03-04T22:45:16.478Z,87.12
2019-03-04T22:47:45.897Z,87.31
2019-03-04T22:50:14.363Z,86.85
2019-03-04T22:52:41.982Z,86.88
2019-03-04T22:55:12.462Z,87.32
2019-03-04T22:57:40.145Z,87.46
2019-03-04T23:01:03.077Z,87.61
2019-03-04T23:03:31.115Z,87.38
2019-03-04T23:05:58.782Z,87.76
2019-03-04T23:08:26.474Z,87.76
2019-03-04T23:10:54.232Z,88.08
2019-03-04T23:13:48.187Z,88.13
2019-03-04T23:16:18.932Z,87.97
2019-03-04T23:18:46.851Z,88.28
2019-03-04T23:21:14.515Z,88.36
2019-03-04T23:23:43.989Z,88.08
2019-03-04T23:26:11.842Z,88.16
2019-03-04T23:28:39.491Z,88.05
2019-03-04T23:31:09.848Z,88.07
2019-03-04T23:33:37.587Z,88.26
2019-03-04T23:36:05.202Z,88.39
2019-03-04T23:38:33.158Z,88.45
2019-03-04T23:41:00.840Z,88.38
2019-03-04T23:43:28.789Z,88.43
2019-03-04T23:45:56.472Z,88.62
2019-03-04T23:48:24.146Z,88.99
2019-03-04T23:50:52.135Z,89.64
2019-03-04T23:53:19.803Z,90.40
2019-03-04T23:55:47.423Z,90.20
2019-03-04T23:58:15.052Z,89.88
